Time;durP1;ratioP1;P1;durP2;ratioP2;P2;SDS_P1;SDS_P2;PMS_P1;PMS_P2;Temp;Humidity;BMP_temperature;BMP_pressure;BME280_temperature;BME280_humidity;BME280_pressure;Samples;Min_cycle;Max_cycle;Signal;HPM_P1;HPM_P2
2023/04/01 05:26:47;;;;;;;18.15;6.53;;;;;;;;;;5009914;23;20055;-67
2023/04/01 05:29:13;;;;;;;14.88;6.00;;;;;;;;;;4955603;29;20054;-69
2023/04/01 05:31:39;;;;;;;13.35;5.38;;;;;;;;;;4955164;29;20027;-61
2023/04/01 05:34:05;;;;;;;11.65;5.72;;;;;;;;;;4949077;29;20059;-62
2023/04/01 05:36:31;;;;;;;12.60;5.80;;;;;;;;;;4945166;29;20121;-62
2023/04/01 05:38:57;;;;;;;10.93;5.47;;;;;;;;;;4944160;29;20032;-69
2023/04/01 05:41:23;;;;;;;11.50;5.53;;;;;;;;;;4926157;29;20040;-61
2023/04/01 05:43:49;;;;;;;10.32;4.80;;;;;;;;;;4943177;29;20126;-68
2023/04/01 05:46:15;;;;;;;12.10;6.03;;;;;;;;;;4944195;29;20027;-65
2023/04/01 05:48:41;;;;;;;15.80;7.80;;;;;;;;;;4944262;29;20547;-65
2023/04/01 05:51:12;;;;;;;22.23;8.80;;;;;;;;;;4942710;29;20031;-68
2023/04/01 05:53:38;;;;;;;40.53;20.92;;;;;;;;;;4943472;29;20024;-64
2023/04/01 05:56:04;;;;;;;19.85;8.48;;;;;;;;;;4944616;29;20106;-62
2023/04/01 05:58:31;;;;;;;16.73;9.30;;;;;;;;;;4943198;29;20165;-62
2023/04/01 06:01:03;;;;;;;18.30;8.52;;;;;;;;;;4943401;29;20035;-62
2023/04/01 06:03:30;;;;;;;14.45;6.95;;;;;;;;;;4945675;29;20406;-63
2023/04/01 06:05:56;;;;;;;16.42;8.77;;;;;;;;;;4943559;29;20023;-62
2023/04/01 06:08:22;;;;;;;25.63;9.68;;;;;;;;;;4944379;29;20082;-70
2023/04/01 06:10:48;;;;;;;21.50;9.57;;;;;;;;;;4942617;29;20016;-66
2023/04/01 06:13:23;;;;;;;15.55;8.18;;;;;;;;;;4943739;29;20538;-66
2023/04/01 06:16:08;;;;;;;18.08;7.68;;;;;;;;;;4944492;29;20031;-68
2023/04/01 06:19:06;;;;;;;16.92;7.97;;;;;;;;;;4943120;29;20055;-64
2023/04/01 06:21:43;;;;;;;16.92;8.00;;;;;;;;;;4866512;29;20229;-67
2023/04/01 06:24:12;;;;;;;20.27;9.75;;;;;;;;;;4865996;29;20434;-66
2023/04/01 06:26:45;;;;;;;14.90;8.45;;;;;;;;;;4865285;29;20387;-68
2023/04/01 06:29:17;;;;;;;15.27;6.88;;;;;;;;;;4864516;29;20069;-68
2023/04/01 06:31:45;;;;;;;17.55;8.02;;;;;;;;;;4864927;29;20440;-62
2023/04/01 06:34:18;;;;;;;22.45;9.05;;;;;;;;;;4860927;29;20108;-66
2023/04/01 06:37:05;;;;;;;17.92;9.15;;;;;;;;;;4856467;29;20168;-69
2023/04/01 06:39:31;;;;;;;15.02;9.68;;;;;;;;;;4856348;29;20033;-70
2023/04/01 06:42:15;;;;;;;14.40;9.32;;;;;;;;;;4856505;29;20474;-68
2023/04/01 06:44:56;;;;;;;16.70;9.35;;;;;;;;;;4856725;29;20042;-64
2023/04/01 06:47:22;;;;;;;15.97;9.77;;;;;;;;;;4856569;29;20485;-68
2023/04/01 06:49:49;;;;;;;19.40;10.02;;;;;;;;;;4856602;29;20045;-67
2023/04/01 06:52:15;;;;;;;16.38;9.77;;;;;;;;;;4856278;29;20049;-66
2023/04/01 06:54:44;;;;;;;15.30;9.90;;;;;;;;;;4857834;29;20042;-65
2023/04/01 06:57:28;;;;;;;16.92;10.82;;;;;;;;;;4894404;29;20420;-61
2023/04/01 06:59:56;;;;;;;20.17;11.50;;;;;;;;;;4925509;29;20042;-64
2023/04/01 07:02:26;;;;;;;18.50;11.50;;;;;;;;;;4922848;29;20127;-68
2023/04/01 07:04:54;;;;;;;23.55;11.88;;;;;;;;;;4922000;29;20047;-62
2023/04/01 07:07:20;;;;;;;21.73;12.23;;;;;;;;;;4923611;29;20369;-67
2023/04/01 07:09:52;;;;;;;18.35;10.82;;;;;;;;;;4923790;29;20749;-70
2023/04/01 07:12:18;;;;;;;20.70;10.70;;;;;;;;;;4928477;29;20414;-72
2023/04/01 07:14:44;;;;;;;17.27;9.23;;;;;;;;;;4923892;29;20028;-63
2023/04/01 07:17:16;;;;;;;14.52;9.40;;;;;;;;;;4922818;29;20023;-61
2023/04/01 07:19:47;;;;;;;18.58;9.20;;;;;;;;;;4932596;29;20054;-71
2023/04/01 07:22:32;;;;;;;14.02;8.43;;;;;;;;;;4933263;29;20398;-63
2023/04/01 07:25:02;;;;;;;16.48;8.77;;;;;;;;;;4929635;29;20134;-63
2023/04/01 07:27:28;;;;;;;15.50;9.00;;;;;;;;;;4926653;29;20055;-62
2023/04/01 07:29:57;;;;;;;18.67;8.85;;;;;;;;;;4922029;29;20036;-64
2023/04/01 07:32:25;;;;;;;16.45;8.32;;;;;;;;;;4924776;29;20046;-62
2023/04/01 07:34:51;;;;;;;15.55;8.02;;;;;;;;;;4933401;29;20031;-61
2023/04/01 07:37:21;;;;;;;13.00;7.53;;;;;;;;;;4933861;29;20028;-73
2023/04/01 07:40:06;;;;;;;16.40;8.88;;;;;;;;;;4915546;29;20501;-71
2023/04/01 07:42:32;;;;;;;11.70;8.32;;;;;;;;;;4933363;29;20118;-73
2023/04/01 07:45:07;;;;;;;12.93;8.40;;;;;;;;;;4933654;29;20098;-66
2023/04/01 07:47:40;;;;;;;15.82;9.00;;;;;;;;;;4931114;29;20073;-64
2023/04/01 07:50:22;;;;;;;15.60;9.30;;;;;;;;;;4930068;29;20035;-63
2023/04/01 07:52:51;;;;;;;13.63;9.30;;;;;;;;;;4922301;29;20108;-69
2023/04/01 07:55:17;;;;;;;17.55;10.70;;;;;;;;;;4904552;29;20070;-61
2023/04/01 07:57:53;;;;;;;18.73;9.02;;;;;;;;;;4905880;29;20022;-65
2023/04/01 08:00:28;;;;;;;14.18;8.35;;;;;;;;;;4926359;29;20035;-64
2023/04/01 08:03:03;;;;;;;15.05;8.43;;;;;;;;;;4924308;29;20128;-61
2023/04/01 08:05:30;;;;;;;15.10;8.38;;;;;;;;;;4919667;29;20029;-60
2023/04/01 08:08:11;;;;;;;10.18;6.85;;;;;;;;;;4921255;29;20039;-62
2023/04/01 08:10:40;;;;;;;13.98;7.13;;;;;;;;;;4929481;29;20059;-62
2023/04/01 08:13:06;;;;;;;13.30;7.28;;;;;;;;;;4926691;29;20071;-70
2023/04/01 08:15:49;;;;;;;13.80;7.15;;;;;;;;;;4927122;29;20019;-69
2023/04/01 08:18:38;;;;;;;12.45;7.03;;;;;;;;;;4925336;29;20024;-63
2023/04/01 08:21:06;;;;;;;15.02;7.63;;;;;;;;;;4859259;29;20061;-61
2023/04/01 08:23:44;;;;;;;13.63;7.95;;;;;;;;;;4859649;29;20033;-62
2023/04/01 08:26:16;;;;;;;12.27;6.55;;;;;;;;;;4858157;29;20132;-63
2023/04/01 08:28:46;;;;;;;15.55;7.63;;;;;;;;;;4857746;29;20034;-74
2023/04/01 08:31:18;;;;;;;15.25;8.05;;;;;;;;;;4859708;29;20104;-61
2023/04/01 08:33:46;;;;;;;17.75;8.82;;;;;;;;;;4858697;29;20503;-65
2023/04/01 08:36:28;;;;;;;13.88;8.25;;;;;;;;;;4858291;29;20029;-72
2023/04/01 08:38:57;;;;;;;19.98;10.90;;;;;;;;;;4859738;29;20115;-65
2023/04/01 08:41:42;;;;;;;17.88;11.27;;;;;;;;;;4858490;29;20109;-69
2023/04/01 08:44:16;;;;;;;20.60;10.20;;;;;;;;;;4856705;29;20044;-66
2023/04/01 08:46:53;;;;;;;19.02;9.75;;;;;;;;;;4854095;29;20048;-59
2023/04/01 08:49:28;;;;;;;21.17;10.65;;;;;;;;;;4860750;29;20025;-64
2023/04/01 08:52:06;;;;;;;19.25;10.38;;;;;;;;;;4858754;29;20056;-62
2023/04/01 08:54:41;;;;;;;21.13;10.43;;;;;;;;;;4859278;29;20052;-62
2023/04/01 08:57:26;;;;;;;17.13;10.63;;;;;;;;;;4862798;29;20042;-62
2023/04/01 08:59:59;;;;;;;19.40;11.13;;;;;;;;;;4898617;29;20684;-62
2023/04/01 09:02:50;;;;;;;17.95;10.60;;;;;;;;;;4897526;29;20044;-61
2023/04/01 09:05:26;;;;;;;18.50;10.23;;;;;;;;;;4899983;29;20036;-63
2023/04/01 09:07:52;;;;;;;23.42;12.63;;;;;;;;;;4898634;29;20040;-62
2023/04/01 09:10:25;;;;;;;16.80;10.30;;;;;;;;;;4899643;29;20048;-67
2023/04/01 09:13:14;;;;;;;16.92;9.95;;;;;;;;;;4898022;29;20041;-64
2023/04/01 09:15:49;;;;;;;18.63;10.40;;;;;;;;;;4858685;29;20427;-64
2023/04/01 09:18:21;;;;;;;19.77;11.02;;;;;;;;;;4858960;29;20042;-69
2023/04/01 09:21:06;;;;;;;17.55;10.45;;;;;;;;;;4858624;29;20057;-62
2023/04/01 09:23:50;;;;;;;18.33;10.63;;;;;;;;;;4858117;29;20536;-62
2023/04/01 09:26:19;;;;;;;27.77;15.85;;;;;;;;;;4857921;29;20085;-61
2023/04/01 09:28:51;;;;;;;25.42;14.88;;;;;;;;;;4858987;29;20025;-62
2023/04/01 09:31:23;;;;;;;30.98;18.02;;;;;;;;;;4858823;29;20033;-64
2023/04/01 09:34:12;;;;;;;18.63;11.73;;;;;;;;;;4858929;29;20176;-60
2023/04/01 09:36:53;;;;;;;16.98;10.55;;;;;;;;;;4840066;29;20097;-60
2023/04/01 09:39:19;;;;;;;18.48;10.68;;;;;;;;;;4841099;29;20042;-61
2023/04/01 09:42:11;;;;;;;21.33;10.93;;;;;;;;;;4839742;29;20451;-61
2023/04/01 09:44:41;;;;;;;19.42;11.70;;;;;;;;;;4837766;29;20052;-60
2023/04/01 09:47:30;;;;;;;18.27;11.10;;;;;;;;;;4839566;29;20121;-61
2023/04/01 09:50:05;;;;;;;19.63;10.27;;;;;;;;;;4840063;29;20132;-64
2023/04/01 09:52:46;;;;;;;18.58;11.00;;;;;;;;;;4855407;29;20044;-61
2023/04/01 09:55:30;;;;;;;21.70;14.30;;;;;;;;;;4871170;29;20049;-61
2023/04/01 09:58:06;;;;;;;20.13;12.75;;;;;;;;;;4874839;29;20052;-61
2023/04/01 10:00:50;;;;;;;23.45;14.02;;;;;;;;;;4869062;29;20057;-62
2023/04/01 10:03:37;;;;;;;16.20;12.52;;;;;;;;;;4875896;29;20033;-62
2023/04/01 10:06:16;;;;;;;6.18;3.50;;;;;;;;;;4838097;29;20046;-63
2023/04/01 10:09:00;;;;;;;4.57;3.17;;;;;;;;;;4826598;29;20552;-64
2023/04/01 10:11:44;;;;;;;5.25;3.67;;;;;;;;;;4827266;29;20038;-64
2023/04/01 10:14:27;;;;;;;7.28;2.92;;;;;;;;;;4828324;29;20474;-62
2023/04/01 10:17:12;;;;;;;7.15;4.53;;;;;;;;;;4850792;29;20065;-63
2023/04/01 10:19:56;;;;;;;6.10;3.83;;;;;;;;;;4851520;29;20081;-62
2023/04/01 10:22:22;;;;;;;5.50;3.28;;;;;;;;;;4827321;29;20121;-64
2023/04/01 10:25:04;;;;;;;7.47;4.90;;;;;;;;;;4855619;29;20545;-62
2023/04/01 10:27:30;;;;;;;6.10;3.07;;;;;;;;;;4864160;29;20041;-61
2023/04/01 10:30:25;;;;;;;7.13;3.72;;;;;;;;;;4872322;29;20264;-62
2023/04/01 10:33:15;;;;;;;7.70;4.47;;;;;;;;;;4853293;29;20870;-63
2023/04/01 10:35:43;;;;;;;7.15;4.28;;;;;;;;;;4861291;29;20230;-63
2023/04/01 10:38:12;;;;;;;9.38;4.80;;;;;;;;;;4871708;29;20036;-62
2023/04/01 10:40:38;;;;;;;6.95;4.47;;;;;;;;;;4861075;29;20049;-62
2023/04/01 10:43:04;;;;;;;7.68;4.07;;;;;;;;;;4893745;29;20044;-61
2023/04/01 10:45:49;;;;;;;7.03;4.63;;;;;;;;;;4903046;29;20043;-61
2023/04/01 10:48:34;;;;;;;13.65;7.53;;;;;;;;;;4911916;29;20035;-61
2023/04/01 10:51:09;;;;;;;4.75;2.33;;;;;;;;;;4909178;29;20040;-61
2023/04/01 10:53:36;;;;;;;14.05;7.57;;;;;;;;;;4902086;29;20032;-61
2023/04/01 10:56:06;;;;;;;9.10;4.85;;;;;;;;;;4898906;29;20500;-61
2023/04/01 10:58:50;;;;;;;13.85;7.18;;;;;;;;;;4896548;29;20112;-61
2023/04/01 11:01:16;;;;;;;12.63;7.30;;;;;;;;;;4896484;29;20068;-63
2023/04/01 11:03:45;;;;;;;8.27;5.78;;;;;;;;;;4900133;29;20484;-69
2023/04/01 11:06:20;;;;;;;12.93;7.13;;;;;;;;;;4904742;29;20047;-64
2023/04/01 11:08:56;;;;;;;9.88;5.72;;;;;;;;;;4906359;29;20020;-68
2023/04/01 11:11:43;;;;;;;6.35;3.35;;;;;;;;;;4909599;29;20035;-63
2023/04/01 11:14:27;;;;;;;8.15;3.95;;;;;;;;;;4907640;29;20350;-68
2023/04/01 11:17:12;;;;;;;7.15;3.38;;;;;;;;;;4903321;29;20084;-62
2023/04/01 11:19:57;;;;;;;5.10;2.55;;;;;;;;;;4901920;29;20039;-70
2023/04/01 11:22:32;;;;;;;6.93;2.95;;;;;;;;;;4911881;29;20133;-64
2023/04/01 11:25:04;;;;;;;3.50;1.63;;;;;;;;;;4916755;29;20072;-61
2023/04/01 11:27:30;;;;;;;4.57;2.42;;;;;;;;;;4933975;29;20024;-62
2023/04/01 11:29:56;;;;;;;3.38;1.65;;;;;;;;;;4930247;29;20042;-62
2023/04/01 11:32:25;;;;;;;6.95;3.35;;;;;;;;;;4933949;29;20032;-66
2023/04/01 11:34:57;;;;;;;5.78;2.33;;;;;;;;;;4927226;29;20107;-66
2023/04/01 11:37:35;;;;;;;6.13;2.95;;;;;;;;;;4928152;29;20032;-67
2023/04/01 11:40:23;;;;;;;4.53;2.45;;;;;;;;;;4928117;29;20742;-61
2023/04/01 11:43:07;;;;;;;2.95;1.75;;;;;;;;;;4922166;29;20024;-76
2023/04/01 11:45:52;;;;;;;5.80;2.58;;;;;;;;;;4925981;29;20028;-61
2023/04/01 11:48:27;;;;;;;5.68;2.35;;;;;;;;;;4926915;29;20024;-65
2023/04/01 11:51:12;;;;;;;3.22;1.77;;;;;;;;;;4922741;29;20036;-67
2023/04/01 11:53:38;;;;;;;5.68;2.08;;;;;;;;;;4920161;29;20027;-60
2023/04/01 11:56:11;;;;;;;4.30;2.75;;;;;;;;;;4916929;29;20040;-61
2023/04/01 11:58:37;;;;;;;6.68;2.90;;;;;;;;;;4928007;29;20071;-64
2023/04/01 12:01:03;;;;;;;4.63;1.83;;;;;;;;;;4928403;29;20452;-61
2023/04/01 12:03:38;;;;;;;4.95;2.60;;;;;;;;;;4928448;29;20512;-61
2023/04/01 12:06:22;;;;;;;6.70;2.97;;;;;;;;;;4928258;29;20024;-61
2023/04/01 12:09:03;;;;;;;5.20;3.15;;;;;;;;;;4920570;29;20063;-66
2023/04/01 12:11:30;;;;;;;5.43;2.72;;;;;;;;;;4923550;29;20689;-70
2023/04/01 12:14:02;;;;;;;5.82;2.92;;;;;;;;;;4904919;29;20067;-71
2023/04/01 12:16:28;;;;;;;;;;;;;;;;;;4926026;29;20427;-69
2023/04/01 12:19:01;;;;;;;5.82;3.15;;;;;;;;;;4924931;29;20044;-62
2023/04/01 12:21:39;;;;;;;8.27;4.13;;;;;;;;;;4924379;29;20032;-60
2023/04/01 12:24:05;;;;;;;8.00;4.47;;;;;;;;;;4921265;29;20044;-61
2023/04/01 12:26:47;;;;;;;9.65;5.07;;;;;;;;;;4905406;29;20056;-73
2023/04/01 12:29:22;;;;;;;8.90;4.93;;;;;;;;;;4901872;29;20085;-60
2023/04/01 12:31:48;;;;;;;9.95;5.57;;;;;;;;;;4903393;29;20040;-74
2023/04/01 12:34:33;;;;;;;7.97;4.80;;;;;;;;;;4902114;29;20352;-62
2023/04/01 12:37:08;;;;;;;7.47;4.03;;;;;;;;;;4910582;29;20047;-65
2023/04/01 12:39:52;;;;;;;10.07;5.43;;;;;;;;;;4912973;29;20040;-69
2023/04/01 12:42:37;;;;;;;12.27;7.18;;;;;;;;;;4913519;29;20492;-73
2023/04/01 12:45:12;;;;;;;9.98;5.70;;;;;;;;;;4913812;29;20095;-74
2023/04/01 12:47:41;;;;;;;6.47;4.60;;;;;;;;;;4913360;29;20445;-76
2023/04/01 12:50:23;;;;;;;5.65;3.33;;;;;;;;;;4913770;29;20031;-75
2023/04/01 12:53:03;;;;;;;7.05;3.38;;;;;;;;;;4905320;29;20036;-68
2023/04/01 12:55:38;;;;;;;8.07;3.65;;;;;;;;;;4914340;29;20036;-72
2023/04/01 12:58:04;;;;;;;6.70;3.40;;;;;;;;;;4904392;29;20090;-62
2023/04/01 13:00:48;;;;;;;7.30;3.50;;;;;;;;;;4904701;29;20092;-62
2023/04/01 13:03:39;;;;;;;7.45;3.35;;;;;;;;;;4898737;29;20036;-65
2023/04/01 13:06:17;;;;;;;6.60;3.45;;;;;;;;;;4907620;29;20091;-64
2023/04/01 13:08:45;;;;;;;7.03;4.05;;;;;;;;;;4906377;29;20037;-76
2023/04/01 13:11:25;;;;;;;7.30;4.13;;;;;;;;;;4903393;29;20670;-67
2023/04/01 13:14:03;;;;;;;8.70;4.32;;;;;;;;;;4905789;29;20024;-73
2023/04/01 13:16:38;;;;;;;5.07;2.90;;;;;;;;;;4907141;29;20020;-65
2023/04/01 13:19:04;;;;;;;6.43;3.35;;;;;;;;;;4909681;29;20039;-68
2023/04/01 13:21:42;;;;;;;5.57;3.10;;;;;;;;;;4909493;29;20057;-73
2023/04/01 13:24:21;;;;;;;6.30;3.80;;;;;;;;;;4911981;29;20056;-70
2023/04/01 13:26:47;;;;;;;7.57;4.03;;;;;;;;;;4923988;29;20139;-69
2023/04/01 13:29:18;;;;;;;5.53;2.92;;;;;;;;;;4927024;29;20123;-77
2023/04/01 13:31:47;;;;;;;5.70;2.50;;;;;;;;;;4926300;29;20034;-62
2023/04/01 13:34:14;;;;;;;5.88;3.25;;;;;;;;;;4924569;29;20032;-62
2023/04/01 13:36:43;;;;;;;10.00;4.93;;;;;;;;;;4925388;29;20365;-76
2023/04/01 13:39:22;;;;;;;11.95;5.22;;;;;;;;;;4921132;29;20036;-62
2023/04/01 13:41:59;;;;;;;9.77;5.32;;;;;;;;;;4916850;29;20048;-75
2023/04/01 13:44:43;;;;;;;18.30;5.55;;;;;;;;;;4916619;29;20119;-62
2023/04/01 13:47:18;;;;;;;11.35;5.70;;;;;;;;;;4916736;29;20032;-66
2023/04/01 13:50:22;;;;;;;14.70;7.28;;;;;;;;;;4916811;29;20024;-61
2023/04/01 13:52:51;;;;;;;14.75;7.72;;;;;;;;;;4869935;29;20160;-61
2023/04/01 13:55:20;;;;;;;7.97;4.32;;;;;;;;;;4875827;29;20049;-61
2023/04/01 13:57:46;;;;;;;10.00;4.30;;;;;;;;;;4874429;29;20033;-61
2023/04/01 14:00:12;;;;;;;12.52;6.75;;;;;;;;;;4875486;29;20033;-61
2023/04/01 14:02:56;;;;;;;11.00;4.88;;;;;;;;;;4875626;29;20437;-61
2023/04/01 14:05:42;;;;;;;10.43;5.10;;;;;;;;;;4875194;29;20041;-67
2023/04/01 14:08:20;;;;;;;9.80;3.97;;;;;;;;;;4872100;29;20125;-73
2023/04/01 14:11:03;;;;;;;10.45;4.53;;;;;;;;;;4872039;29;20045;-63
2023/04/01 14:13:38;;;;;;;8.02;4.30;;;;;;;;;;4876168;29;20187;-66
2023/04/01 14:16:22;;;;;;;10.93;4.78;;;;;;;;;;4876484;29;20076;-64
2023/04/01 14:18:59;;;;;;;9.13;5.53;;;;;;;;;;4876416;29;20059;-62
2023/04/01 14:21:49;;;;;;;9.40;4.50;;;;;;;;;;4876025;29;20076;-63
2023/04/01 14:24:36;;;;;;;8.48;4.30;;;;;;;;;;4907426;29;20448;-73
2023/04/01 14:27:11;;;;;;;11.20;6.18;;;;;;;;;;4915644;29;20131;-71
2023/04/01 14:29:37;;;;;;;8.80;5.07;;;;;;;;;;4915263;29;20091;-73
2023/04/01 14:32:23;;;;;;;10.52;5.13;;;;;;;;;;4915818;29;20527;-61
2023/04/01 14:34:49;;;;;;;7.97;4.20;;;;;;;;;;4915935;29;20028;-74
2023/04/01 14:37:15;;;;;;;7.35;3.08;;;;;;;;;;4928740;29;20107;-69
2023/04/01 14:39:45;;;;;;;5.43;3.45;;;;;;;;;;4925485;29;20024;-75
2023/04/01 14:42:40;;;;;;;8.77;4.60;;;;;;;;;;4923437;29;20028;-69
2023/04/01 14:45:09;;;;;;;7.78;4.03;;;;;;;;;;4884766;29;20040;-63
2023/04/01 14:47:44;;;;;;;6.95;3.30;;;;;;;;;;4884520;29;20060;-63
2023/04/01 14:50:13;;;;;;;11.45;5.80;;;;;;;;;;4885734;29;20044;-71
2023/04/01 14:52:40;;;;;;;5.05;3.15;;;;;;;;;;4882641;29;20025;-60
2023/04/01 14:55:26;;;;;;;5.25;3.13;;;;;;;;;;4884232;29;20077;-61
2023/04/01 14:58:00;;;;;;;7.63;3.10;;;;;;;;;;4882408;29;20033;-73
2023/04/01 15:00:26;;;;;;;9.48;4.65;;;;;;;;;;4883836;29;20037;-61
2023/04/01 15:03:13;;;;;;;5.65;3.30;;;;;;;;;;4883323;29;20148;-63
2023/04/01 15:05:40;;;;;;;6.95;4.15;;;;;;;;;;4883118;29;20082;-61
2023/04/01 15:08:16;;;;;;;5.93;3.20;;;;;;;;;;4888197;29;20037;-62
2023/04/01 15:11:02;;;;;;;7.00;3.88;;;;;;;;;;4894398;29;20032;-61
2023/04/01 15:13:48;;;;;;;9.30;3.92;;;;;;;;;;4887377;29;20057;-61
2023/04/01 15:16:32;;;;;;;7.50;3.80;;;;;;;;;;4883879;29;20143;-61
2023/04/01 15:19:15;;;;;;;6.03;3.20;;;;;;;;;;4893937;29;20111;-61
2023/04/01 15:22:00;;;;;;;11.60;4.03;;;;;;;;;;4909815;29;20052;-62
2023/04/01 15:24:44;;;;;;;7.97;3.60;;;;;;;;;;4920204;29;21370;-65
2023/04/01 15:27:14;;;;;;;7.20;3.75;;;;;;;;;;4904741;29;20119;-62
2023/04/01 15:29:43;;;;;;;7.43;4.45;;;;;;;;;;4901525;29;20037;-67
2023/04/01 15:32:25;;;;;;;6.75;4.50;;;;;;;;;;4905019;29;20063;-72
2023/04/01 15:34:57;;;;;;;17.25;10.52;;;;;;;;;;4906469;29;20122;-62
2023/04/01 15:37:32;;;;;;;22.55;13.23;;;;;;;;;;4905667;29;20473;-74
2023/04/01 15:40:22;;;;;;;19.88;11.68;;;;;;;;;;4906162;29;20448;-62
2023/04/01 15:43:09;;;;;;;9.45;5.35;;;;;;;;;;4893738;29;20409;-69
2023/04/01 15:45:54;;;;;;;8.82;5.38;;;;;;;;;;4903139;29;20031;-68
2023/04/01 15:48:38;;;;;;;9.70;5.65;;;;;;;;;;4909453;29;20047;-66
2023/04/01 15:51:23;;;;;;;8.85;5.53;;;;;;;;;;4903674;29;20021;-67
2023/04/01 15:53:52;;;;;;;23.55;13.32;;;;;;;;;;4906402;29;20026;-69
2023/04/01 15:56:44;;;;;;;12.07;6.20;;;;;;;;;;4903752;29;20020;-63
2023/04/01 15:59:32;;;;;;;20.73;12.45;;;;;;;;;;4910470;29;20032;-62
2023/04/01 16:02:00;;;;;;;13.73;7.22;;;;;;;;;;4915007;29;20619;-73
2023/04/01 16:04:45;;;;;;;8.98;5.00;;;;;;;;;;4915153;29;20024;-68
2023/04/01 16:07:31;;;;;;;6.97;4.07;;;;;;;;;;4916636;29;20047;-63
2023/04/01 16:10:06;;;;;;;9.23;5.47;;;;;;;;;;4914194;29;20115;-62
2023/04/01 16:12:36;;;;;;;11.98;6.60;;;;;;;;;;4913851;29;20032;-71
2023/04/01 16:15:10;;;;;;;12.05;6.38;;;;;;;;;;4903600;29;20047;-62
2023/04/01 16:17:43;;;;;;;9.43;5.45;;;;;;;;;;4904917;29;20102;-71
2023/04/01 16:20:18;;;;;;;11.20;5.90;;;;;;;;;;4904607;29;20036;-63
2023/04/01 16:22:52;;;;;;;20.80;10.68;;;;;;;;;;4904422;29;20036;-62
2023/04/01 16:25:21;;;;;;;10.07;5.95;;;;;;;;;;4902833;29;20111;-63
2023/04/01 16:28:06;;;;;;;9.93;5.50;;;;;;;;;;4921834;29;20047;-62
2023/04/01 16:30:43;;;;;;;11.02;6.82;;;;;;;;;;4927578;29;20023;-61
2023/04/01 16:33:16;;;;;;;10.95;6.72;;;;;;;;;;4934315;29;20036;-72
2023/04/01 16:35:48;;;;;;;11.95;6.68;;;;;;;;;;4937024;29;20115;-72
2023/04/01 16:38:30;;;;;;;10.10;5.22;;;;;;;;;;4937807;29;20040;-62
2023/04/01 16:41:08;;;;;;;8.40;5.07;;;;;;;;;;4937174;29;20119;-67
2023/04/01 16:43:51;;;;;;;9.65;4.97;;;;;;;;;;4937055;29;20050;-62
2023/04/01 16:46:28;;;;;;;9.00;5.13;;;;;;;;;;4936522;29;20062;-62
2023/04/01 16:49:12;;;;;;;7.22;4.60;;;;;;;;;;4936653;29;20038;-62
2023/04/01 16:51:41;;;;;;;8.80;4.75;;;;;;;;;;4931580;29;20032;-63
2023/04/01 16:54:16;;;;;;;7.13;4.13;;;;;;;;;;4926420;29;20027;-61
2023/04/01 16:56:46;;;;;;;7.05;4.15;;;;;;;;;;4919118;29;20039;-62
2023/04/01 16:59:15;;;;;;;7.03;4.10;;;;;;;;;;4924046;29;20032;-61
2023/04/01 17:01:45;;;;;;;6.38;3.75;;;;;;;;;;4930302;29;20487;-76
2023/04/01 17:04:26;;;;;;;7.38;4.35;;;;;;;;;;4934237;29;20475;-60
2023/04/01 17:07:07;;;;;;;10.60;5.15;;;;;;;;;;4920657;29;20055;-70
2023/04/01 17:09:51;;;;;;;9.05;5.82;;;;;;;;;;4928886;29;20034;-63
2023/04/01 17:12:26;;;;;;;8.75;4.97;;;;;;;;;;4919738;29;20495;-72
2023/04/01 17:15:25;;;;;;;8.65;4.28;;;;;;;;;;4928526;29;20044;-72
2023/04/01 17:18:06;;;;;;;6.80;4.15;;;;;;;;;;4891138;29;20640;-64
2023/04/01 17:20:44;;;;;;;9.07;4.50;;;;;;;;;;4890951;29;20504;-62
2023/04/01 17:23:10;;;;;;;10.10;4.35;;;;;;;;;;4885474;29;20037;-60
2023/04/01 17:25:49;;;;;;;9.48;4.57;;;;;;;;;;4882396;29;20060;-61
2023/04/01 17:28:27;;;;;;;8.57;4.57;;;;;;;;;;4892149;29;20056;-62
2023/04/01 17:31:02;;;;;;;9.32;4.60;;;;;;;;;;4883776;29;20032;-61
2023/04/01 17:33:42;;;;;;;9.77;4.80;;;;;;;;;;4884107;29;20052;-72
2023/04/01 17:36:24;;;;;;;9.82;4.45;;;;;;;;;;4877312;29;20029;-72
2023/04/01 17:38:50;;;;;;;11.65;5.00;;;;;;;;;;4877403;29;20063;-69
2023/04/01 17:41:16;;;;;;;11.32;5.22;;;;;;;;;;4876993;29;20461;-61
2023/04/01 17:43:53;;;;;;;11.93;5.75;;;;;;;;;;4876819;29;20041;-60
2023/04/01 17:46:25;;;;;;;10.38;5.18;;;;;;;;;;4876290;29;20136;-63
2023/04/01 17:48:54;;;;;;;13.70;5.82;;;;;;;;;;4877002;29;20037;-61
2023/04/01 17:51:20;;;;;;;9.95;5.50;;;;;;;;;;4879073;29;20060;-72
2023/04/01 17:54:05;;;;;;;11.02;6.15;;;;;;;;;;4891886;29;20036;-61
2023/04/01 17:56:39;;;;;;;16.52;9.60;;;;;;;;;;4897315;29;20068;-61
2023/04/01 17:59:25;;;;;;;12.00;7.20;;;;;;;;;;4905642;29;20033;-60
2023/04/01 18:02:06;;;;;;;11.23;6.35;;;;;;;;;;4924920;29;20071;-67
2023/04/01 18:04:41;;;;;;;12.27;6.68;;;;;;;;;;4911930;29;20040;-71
2023/04/01 18:07:10;;;;;;;15.43;7.07;;;;;;;;;;4914666;29;20154;-78
2023/04/01 18:09:59;;;;;;;11.82;6.65;;;;;;;;;;4916211;29;20039;-67
2023/04/01 18:12:43;;;;;;;16.17;9.52;;;;;;;;;;4915868;29;20119;-60
2023/04/01 18:15:15;;;;;;;13.48;8.25;;;;;;;;;;4915996;29;20118;-61
2023/04/01 18:17:47;;;;;;;14.93;8.57;;;;;;;;;;4916295;29;20687;-70
2023/04/01 18:20:22;;;;;;;14.52;8.35;;;;;;;;;;4916041;29;20043;-65
2023/04/01 18:23:05;;;;;;;13.43;7.40;;;;;;;;;;4915488;29;20570;-61
2023/04/01 18:25:35;;;;;;;11.32;7.63;;;;;;;;;;4918087;29;20059;-62
2023/04/01 18:28:20;;;;;;;14.02;8.07;;;;;;;;;;4915476;29;20032;-67
2023/04/01 18:30:54;;;;;;;11.82;7.53;;;;;;;;;;4915337;29;20024;-69
2023/04/01 18:33:35;;;;;;;12.63;7.97;;;;;;;;;;4915768;29;20087;-67
2023/04/01 18:36:15;;;;;;;12.93;7.70;;;;;;;;;;4919338;29;20032;-62
2023/04/01 18:38:48;;;;;;;15.82;9.65;;;;;;;;;;4918938;29;20039;-62
2023/04/01 18:41:16;;;;;;;17.35;8.50;;;;;;;;;;4915280;29;20039;-61
2023/04/01 18:44:02;;;;;;;13.35;8.45;;;;;;;;;;4915002;29;20032;-63
2023/04/01 18:46:31;;;;;;;13.50;8.55;;;;;;;;;;4915009;29;20028;-62
2023/04/01 18:49:07;;;;;;;13.98;8.00;;;;;;;;;;4915329;29;20051;-61
2023/04/01 18:51:37;;;;;;;12.77;8.07;;;;;;;;;;4915137;29;20031;-62
2023/04/01 18:54:10;;;;;;;13.60;7.47;;;;;;;;;;4914960;29;20025;-72
2023/04/01 18:56:38;;;;;;;14.68;7.80;;;;;;;;;;4914146;29;20028;-63
2023/04/01 18:59:07;;;;;;;15.75;8.45;;;;;;;;;;4918587;29;20055;-68
2023/04/01 19:01:48;;;;;;;15.57;8.30;;;;;;;;;;4915593;29;20083;-69
2023/04/01 19:04:33;;;;;;;15.32;10.23;;;;;;;;;;4915192;29;20476;-66
2023/04/01 19:07:01;;;;;;;17.25;9.85;;;;;;;;;;4914632;29;20024;-67
2023/04/01 19:09:47;;;;;;;16.13;9.93;;;;;;;;;;4915538;29;20097;-61
2023/04/01 19:12:38;;;;;;;16.73;8.82;;;;;;;;;;4915151;29;20036;-61
2023/04/01 19:15:15;;;;;;;14.98;8.52;;;;;;;;;;4915173;29;20020;-61
2023/04/01 19:17:54;;;;;;;17.70;11.68;;;;;;;;;;4915273;29;20024;-65
2023/04/01 19:20:39;;;;;;;17.15;9.55;;;;;;;;;;4915265;29;20044;-65
2023/04/01 19:23:17;;;;;;;17.85;10.10;;;;;;;;;;4914854;29;20415;-67
2023/04/01 19:25:56;;;;;;;16.98;9.95;;;;;;;;;;4914285;29;20063;-61
2023/04/01 19:28:40;;;;;;;15.82;9.40;;;;;;;;;;4915285;29;20043;-60
2023/04/01 19:31:13;;;;;;;14.48;8.68;;;;;;;;;;4915301;29;20028;-62
2023/04/01 19:33:55;;;;;;;13.70;8.48;;;;;;;;;;4897708;29;20083;-64
2023/04/01 19:36:40;;;;;;;19.02;11.27;;;;;;;;;;4914046;29;20032;-66
2023/04/01 19:39:12;;;;;;;20.52;11.32;;;;;;;;;;4920227;29;20111;-67
2023/04/01 19:41:51;;;;;;;21.88;12.77;;;;;;;;;;4920211;29;20058;-61
2023/04/01 19:44:20;;;;;;;17.40;9.43;;;;;;;;;;4929499;29;20075;-69
2023/04/01 19:46:52;;;;;;;19.73;11.48;;;;;;;;;;4919514;29;20382;-62
2023/04/01 19:49:18;;;;;;;19.05;11.65;;;;;;;;;;4922022;29;20028;-61
2023/04/01 19:51:56;;;;;;;16.38;9.30;;;;;;;;;;4927937;29;20040;-66
2023/04/01 19:54:38;;;;;;;20.52;8.80;;;;;;;;;;4917186;29;20055;-61
2023/04/01 19:57:04;;;;;;;19.90;11.73;;;;;;;;;;4922459;29;20223;-63
2023/04/01 19:59:48;;;;;;;16.65;10.75;;;;;;;;;;4922579;29;20031;-64
2023/04/01 20:02:29;;;;;;;21.65;13.13;;;;;;;;;;4921076;29;20051;-67
2023/04/01 20:04:56;;;;;;;18.70;10.32;;;;;;;;;;4925019;29;20036;-63
2023/04/01 20:07:26;;;;;;;14.27;9.07;;;;;;;;;;4921611;29;20028;-67
2023/04/01 20:10:16;;;;;;;13.82;8.32;;;;;;;;;;4924881;29;20040;-71
2023/04/01 20:12:45;;;;;;;20.17;11.73;;;;;;;;;;4928771;29;20034;-71
2023/04/01 20:15:20;;;;;;;20.00;10.63;;;;;;;;;;4930713;29;20062;-68
2023/04/01 20:17:47;;;;;;;27.60;15.88;;;;;;;;;;4927124;29;20028;-69
2023/04/01 20:20:15;;;;;;;26.67;15.23;;;;;;;;;;4927874;29;20032;-70
2023/04/01 20:22:44;;;;;;;23.88;14.23;;;;;;;;;;4911786;29;20438;-62
2023/04/01 20:25:17;;;;;;;16.27;10.55;;;;;;;;;;4919282;29;20436;-66
2023/04/01 20:27:51;;;;;;;14.68;9.27;;;;;;;;;;4922502;29;20499;-61
2023/04/01 20:30:36;;;;;;;20.27;12.63;;;;;;;;;;4923060;29;20033;-62
2023/04/01 20:33:20;;;;;;;16.65;8.95;;;;;;;;;;4924151;29;20107;-63
2023/04/01 20:36:02;;;;;;;18.38;9.05;;;;;;;;;;4926946;29;20107;-62
2023/04/01 20:38:37;;;;;;;13.98;8.50;;;;;;;;;;4926873;29;20498;-64
2023/04/01 20:41:08;;;;;;;13.80;8.02;;;;;;;;;;4925449;29;20048;-62
2023/04/01 20:43:49;;;;;;;13.82;8.02;;;;;;;;;;4922955;29;20028;-64
2023/04/01 20:46:15;;;;;;;14.05;7.80;;;;;;;;;;4918034;29;20036;-62
2023/04/01 20:48:41;;;;;;;14.70;8.10;;;;;;;;;;4922086;29;20024;-62